This is the latest recevied weather packets stored in our database for station/object SP2WPY-13. If no packets are shown the sender has not sent any weather packets the latest 10 day(s).
| Time | Temp. | Humidity | Pressure | Rain* | Wind** | Luminosity | Snow |
|---|---|---|---|---|---|---|---|
| 1788102311 | 26.11° C | 56% | 1012.1 hPa | - | - | - | - |
| 1788102035 | 26.67° C | 54% | 1012.1 hPa | - | - | - | - |
| 1788101716 | 26.67° C | 54% | 1012 hPa | - | - | - | - |
| 1788101441 | 27.22° C | 52% | 1012.1 hPa | - | - | - | - |
| 1788101122 | 26.67° C | 53% | 1012.1 hPa | - | - | - | - |
| 1788100802 | 27.22° C | 53% | 1012.1 hPa | - | - | - | - |
| 1788100527 | 27.22° C | 54% | 1012.1 hPa | - | - | - | - |
| 1788100208 | 26.67° C | 55% | 1012 hPa | - | - | - | - |
| 1788099934 | 26.67° C | 54% | 1012 hPa | - | - | - | - |
| 1788099613 | 26.67° C | 55% | 1012.1 hPa | - | - | - | - |
| 1788099339 | 26.67° C | 55% | 1012 hPa | - | - | - | - |
| 1788099018 | 26.67° C | 56% | 1012.1 hPa | - | - | - | - |
| 1788098744 | 26.67° C | 56% | 1012.2 hPa | - | - | - | - |
| 1788098422 | 26.67° C | 56% | 1012.1 hPa | - | - | - | - |
| 1788098103 | 26.11° C | 58% | 1012.1 hPa | - | - | - | - |
| 1788097828 | 25.56° C | 61% | 1012.3 hPa | - | - | - | - |
| 1788097505 | 25.56° C | 59% | 1012.3 hPa | - | - | - | - |
| 1788097233 | 25.56° C | 61% | 1012.3 hPa | - | - | - | - |
| 1788096911 | 25.56° C | 60% | 1012.2 hPa | - | - | - | - |
| 1788096638 | 26.11° C | 59% | 1012.3 hPa | - | - | - | - |
| 1788096317 | 26.11° C | 61% | 1012.5 hPa | - | - | - | - |
| 1788096043 | 25.56° C | 62% | 1012.3 hPa | - | - | - | - |
| 1788095724 | 25.56° C | 63% | 1012.3 hPa | - | - | - | - |
| 1788095403 | 25° C | 65% | 1012.5 hPa | - | - | - | - |
| 1788095129 | 24.44° C | 67% | 1012.6 hPa | - | - | - | - |
* Rain since midnight (hover to see other rain measurements)
** Current wind speed in m/s (hover to see current wind gust speed)